sensor_id;sensor_type;location;lat;lon;timestamp;pressure;altitude;pressure_sealevel;temperature;humidity
34124;BME280;13153;52.316;21.166;2023-04-28T00:02:02;100833.47;;;8.97;51.79
34124;BME280;13153;52.316;21.166;2023-04-28T00:04:28;100839.38;;;8.91;52.23
34124;BME280;13153;52.316;21.166;2023-04-28T00:06:53;100838.59;;;8.93;52.22
34124;BME280;13153;52.316;21.166;2023-04-28T00:09:19;100830.47;;;8.87;52.35
34124;BME280;13153;52.316;21.166;2023-04-28T00:11:45;100834.00;;;8.88;51.93
34124;BME280;13153;52.316;21.166;2023-04-28T00:14:12;100829.25;;;8.79;51.52
34124;BME280;13153;52.316;21.166;2023-04-28T00:16:38;100834.25;;;8.73;51.60
34124;BME280;13153;52.316;21.166;2023-04-28T00:19:04;100834.25;;;8.73;51.73
34124;BME280;13153;52.316;21.166;2023-04-28T00:21:29;100834.13;;;8.70;51.97
34124;BME280;13153;52.316;21.166;2023-04-28T00:23:56;100839.56;;;8.75;51.55
34124;BME280;13153;52.316;21.166;2023-04-28T00:26:22;100844.69;;;8.72;52.32
34124;BME280;13153;52.316;21.166;2023-04-28T00:28:48;100843.66;;;8.68;52.14
34124;BME280;13153;52.316;21.166;2023-04-28T00:31:14;100827.66;;;8.60;51.86
34124;BME280;13153;52.316;21.166;2023-04-28T00:33:42;100839.94;;;8.62;52.12
34124;BME280;13153;52.316;21.166;2023-04-28T00:36:08;100839.16;;;8.64;51.69
34124;BME280;13153;52.316;21.166;2023-04-28T00:38:34;100839.22;;;8.66;51.47
34124;BME280;13153;52.316;21.166;2023-04-28T00:41:01;100844.22;;;8.59;52.33
34124;BME280;13153;52.316;21.166;2023-04-28T00:43:26;100841.41;;;8.55;51.99
34124;BME280;13153;52.316;21.166;2023-04-28T00:45:52;100841.84;;;8.45;51.99
34124;BME280;13153;52.316;21.166;2023-04-28T00:48:19;100843.50;;;8.43;52.48
34124;BME280;13153;52.316;21.166;2023-04-28T00:50:46;100841.72;;;8.42;52.19
34124;BME280;13153;52.316;21.166;2023-04-28T00:53:13;100845.22;;;8.42;51.82
34124;BME280;13153;52.316;21.166;2023-04-28T00:55:39;100846.88;;;8.40;52.80
34124;BME280;13153;52.316;21.166;2023-04-28T00:58:06;100849.50;;;8.40;52.14
34124;BME280;13153;52.316;21.166;2023-04-28T01:00:33;100853.09;;;8.42;52.37
34124;BME280;13153;52.316;21.166;2023-04-28T01:02:59;100851.22;;;8.40;52.04
34124;BME280;13153;52.316;21.166;2023-04-28T01:05:26;100853.78;;;8.38;52.24
34124;BME280;13153;52.316;21.166;2023-04-28T01:07:53;100847.28;;;8.30;52.48
34124;BME280;13153;52.316;21.166;2023-04-28T01:10:19;100859.31;;;8.25;52.31
34124;BME280;13153;52.316;21.166;2023-04-28T01:12:45;100849.50;;;8.21;52.64
34124;BME280;13153;52.316;21.166;2023-04-28T01:15:16;100855.38;;;8.15;52.80
34124;BME280;13153;52.316;21.166;2023-04-28T01:17:42;100857.72;;;8.09;53.15
34124;BME280;13153;52.316;21.166;2023-04-28T01:20:09;100848.59;;;8.00;52.63
34124;BME280;13153;52.316;21.166;2023-04-28T01:22:35;100849.28;;;7.95;53.00
34124;BME280;13153;52.316;21.166;2023-04-28T01:25:00;100853.44;;;7.90;52.53
34124;BME280;13153;52.316;21.166;2023-04-28T01:27:28;100854.94;;;7.85;53.05
34124;BME280;13153;52.316;21.166;2023-04-28T01:29:54;100858.41;;;7.84;53.33
34124;BME280;13153;52.316;21.166;2023-04-28T01:32:20;100858.31;;;7.83;52.84
34124;BME280;13153;52.316;21.166;2023-04-28T01:34:46;100852.19;;;7.82;52.96
34124;BME280;13153;52.316;21.166;2023-04-28T01:37:12;100857.44;;;7.82;52.81
34124;BME280;13153;52.316;21.166;2023-04-28T01:39:37;100860.88;;;7.81;52.64
34124;BME280;13153;52.316;21.166;2023-04-28T01:42:03;100855.72;;;7.83;53.02
34124;BME280;13153;52.316;21.166;2023-04-28T01:44:29;100861.91;;;7.85;52.85
34124;BME280;13153;52.316;21.166;2023-04-28T01:46:55;100857.38;;;7.81;52.66
34124;BME280;13153;52.316;21.166;2023-04-28T01:49:21;100855.34;;;7.75;52.77
34124;BME280;13153;52.316;21.166;2023-04-28T01:51:46;100863.34;;;7.78;52.46
34124;BME280;13153;52.316;21.166;2023-04-28T01:54:12;100866.88;;;7.79;52.54
34124;BME280;13153;52.316;21.166;2023-04-28T01:56:38;100862.47;;;7.78;52.86
34124;BME280;13153;52.316;21.166;2023-04-28T01:59:04;100864.31;;;7.80;53.06
34124;BME280;13153;52.316;21.166;2023-04-28T02:01:29;100858.81;;;7.74;52.67
34124;BME280;13153;52.316;21.166;2023-04-28T02:03:55;100864.72;;;7.70;52.97
34124;BME280;13153;52.316;21.166;2023-04-28T02:06:21;100867.75;;;7.60;52.93
34124;BME280;13153;52.316;21.166;2023-04-28T02:08:47;100863.94;;;7.53;52.98
34124;BME280;13153;52.316;21.166;2023-04-28T02:11:12;100858.53;;;7.49;53.57
34124;BME280;13153;52.316;21.166;2023-04-28T02:13:38;100862.72;;;7.45;53.26
34124;BME280;13153;52.316;21.166;2023-04-28T02:16:04;100858.09;;;7.40;52.98
34124;BME280;13153;52.316;21.166;2023-04-28T02:18:30;100859.63;;;7.35;53.24
34124;BME280;13153;52.316;21.166;2023-04-28T02:20:56;100861.19;;;7.31;53.04
34124;BME280;13153;52.316;21.166;2023-04-28T02:23:22;100861.03;;;7.28;53.50
34124;BME280;13153;52.316;21.166;2023-04-28T02:25:47;100870.75;;;7.31;53.46
34124;BME280;13153;52.316;21.166;2023-04-28T02:28:13;100870.22;;;7.38;53.45
34124;BME280;13153;52.316;21.166;2023-04-28T02:30:39;100872.16;;;7.42;53.04
34124;BME280;13153;52.316;21.166;2023-04-28T02:33:04;100877.25;;;7.39;53.55
34124;BME280;13153;52.316;21.166;2023-04-28T02:35:30;100866.72;;;7.37;52.97
34124;BME280;13153;52.316;21.166;2023-04-28T02:37:56;100874.28;;;7.31;53.10
34124;BME280;13153;52.316;21.166;2023-04-28T02:40:22;100865.44;;;7.29;53.49
34124;BME280;13153;52.316;21.166;2023-04-28T02:42:48;100863.44;;;7.23;53.27
34124;BME280;13153;52.316;21.166;2023-04-28T02:45:13;100880.19;;;7.27;53.60
34124;BME280;13153;52.316;21.166;2023-04-28T02:47:39;100878.63;;;7.31;53.58
34124;BME280;13153;52.316;21.166;2023-04-28T02:50:06;100865.09;;;7.21;53.77
34124;BME280;13153;52.316;21.166;2023-04-28T02:52:32;100871.00;;;7.17;53.55
34124;BME280;13153;52.316;21.166;2023-04-28T02:54:58;100876.91;;;7.13;53.58
34124;BME280;13153;52.316;21.166;2023-04-28T02:57:24;100876.63;;;7.07;53.74
34124;BME280;13153;52.316;21.166;2023-04-28T02:59:50;100877.34;;;7.05;53.67
34124;BME280;13153;52.316;21.166;2023-04-28T03:02:15;100877.28;;;7.03;53.78
34124;BME280;13153;52.316;21.166;2023-04-28T03:04:41;100876.00;;;6.95;53.88
34124;BME280;13153;52.316;21.166;2023-04-28T03:07:07;100878.84;;;7.00;53.92
34124;BME280;13153;52.316;21.166;2023-04-28T03:09:33;100874.97;;;7.09;53.71
34124;BME280;13153;52.316;21.166;2023-04-28T03:11:59;100877.59;;;7.09;53.66
34124;BME280;13153;52.316;21.166;2023-04-28T03:14:25;100878.69;;;7.14;53.65
34124;BME280;13153;52.316;21.166;2023-04-28T03:16:51;100884.75;;;7.13;53.46
34124;BME280;13153;52.316;21.166;2023-04-28T03:19:17;100883.03;;;7.14;53.06
34124;BME280;13153;52.316;21.166;2023-04-28T03:21:42;100891.78;;;7.14;53.26
34124;BME280;13153;52.316;21.166;2023-04-28T03:24:08;100885.72;;;7.15;53.39
34124;BME280;13153;52.316;21.166;2023-04-28T03:26:34;100888.72;;;7.23;53.00
34124;BME280;13153;52.316;21.166;2023-04-28T03:29:00;100882.88;;;7.28;52.90
34124;BME280;13153;52.316;21.166;2023-04-28T03:31:26;100882.56;;;7.40;53.19
34124;BME280;13153;52.316;21.166;2023-04-28T03:33:52;100877.88;;;7.52;52.44
34124;BME280;13153;52.316;21.166;2023-04-28T03:36:17;100887.34;;;7.68;52.23
34124;BME280;13153;52.316;21.166;2023-04-28T03:38:43;100881.75;;;7.80;51.82
34124;BME280;13153;52.316;21.166;2023-04-28T03:41:09;100884.88;;;7.90;51.59
34124;BME280;13153;52.316;21.166;2023-04-28T03:43:35;100887.22;;;8.04;50.99
34124;BME280;13153;52.316;21.166;2023-04-28T03:46:03;100890.91;;;8.28;50.77
34124;BME280;13153;52.316;21.166;2023-04-28T03:48:29;100888.41;;;8.50;49.86
34124;BME280;13153;52.316;21.166;2023-04-28T03:50:55;100887.75;;;8.77;49.66
34124;BME280;13153;52.316;21.166;2023-04-28T03:53:21;100887.22;;;9.06;49.09
34124;BME280;13153;52.316;21.166;2023-04-28T03:55:46;100885.75;;;9.35;48.54
34124;BME280;13153;52.316;21.166;2023-04-28T03:58:12;100883.28;;;9.62;47.66
34124;BME280;13153;52.316;21.166;2023-04-28T04:00:38;100879.03;;;9.89;46.75
34124;BME280;13153;52.316;21.166;2023-04-28T04:03:04;100885.31;;;10.17;46.79
34124;BME280;13153;52.316;21.166;2023-04-28T04:05:29;100890.56;;;10.41;46.38
34124;BME280;13153;52.316;21.166;2023-04-28T04:07:55;100887.22;;;10.70;45.34
34124;BME280;13153;52.316;21.166;2023-04-28T04:10:21;100897.78;;;10.97;44.61
34124;BME280;13153;52.316;21.166;2023-04-28T04:12:47;100900.97;;;11.15;44.49
34124;BME280;13153;52.316;21.166;2023-04-28T04:15:12;100896.41;;;11.37;44.04
34124;BME280;13153;52.316;21.166;2023-04-28T04:17:38;100908.47;;;11.58;43.48
34124;BME280;13153;52.316;21.166;2023-04-28T04:20:05;100896.94;;;11.82;43.10
34124;BME280;13153;52.316;21.166;2023-04-28T04:22:31;100901.03;;;12.02;43.03
34124;BME280;13153;52.316;21.166;2023-04-28T04:24:57;100899.16;;;12.30;42.45
34124;BME280;13153;52.316;21.166;2023-04-28T04:27:23;100903.25;;;12.50;41.80
34124;BME280;13153;52.316;21.166;2023-04-28T04:29:49;100906.41;;;12.70;41.66
34124;BME280;13153;52.316;21.166;2023-04-28T04:32:15;100908.72;;;12.92;41.57
34124;BME280;13153;52.316;21.166;2023-04-28T04:34:41;100907.78;;;13.23;41.45
34124;BME280;13153;52.316;21.166;2023-04-28T04:37:08;100906.84;;;13.59;40.13
34124;BME280;13153;52.316;21.166;2023-04-28T04:39:34;100906.75;;;13.96;39.89
34124;BME280;13153;52.316;21.166;2023-04-28T04:42:01;100899.50;;;14.30;39.57
34124;BME280;13153;52.316;21.166;2023-04-28T04:44:27;100908.94;;;14.61;38.74
34124;BME280;13153;52.316;21.166;2023-04-28T04:46:53;100911.28;;;14.92;38.66
34124;BME280;13153;52.316;21.166;2023-04-28T04:49:18;100911.75;;;15.23;37.89
34124;BME280;13153;52.316;21.166;2023-04-28T04:51:44;100908.69;;;15.51;37.00
34124;BME280;13153;52.316;21.166;2023-04-28T04:54:10;100910.94;;;15.25;37.20
34124;BME280;13153;52.316;21.166;2023-04-28T04:56:36;100921.38;;;14.65;38.19
34124;BME280;13153;52.316;21.166;2023-04-28T04:59:02;100917.44;;;14.01;39.63
34124;BME280;13153;52.316;21.166;2023-04-28T05:01:27;100917.97;;;13.45;41.25
34124;BME280;13153;52.316;21.166;2023-04-28T05:03:53;100918.84;;;13.08;42.38
34124;BME280;13153;52.316;21.166;2023-04-28T05:06:20;100912.22;;;13.63;41.91
34124;BME280;13153;52.316;21.166;2023-04-28T05:08:45;100921.94;;;14.95;39.61
34124;BME280;13153;52.316;21.166;2023-04-28T05:11:11;100914.31;;;16.43;37.31
34124;BME280;13153;52.316;21.166;2023-04-28T05:13:37;100921.69;;;17.76;35.46
34124;BME280;13153;52.316;21.166;2023-04-28T05:16:05;100921.19;;;18.95;33.19
34124;BME280;13153;52.316;21.166;2023-04-28T05:18:31;100921.06;;;19.98;30.91
34124;BME280;13153;52.316;21.166;2023-04-28T05:20:57;100924.25;;;20.80;30.36
34124;BME280;13153;52.316;21.166;2023-04-28T05:23:22;100930.38;;;21.93;28.42
34124;BME280;13153;52.316;21.166;2023-04-28T05:25:49;100927.38;;;22.87;26.46
34124;BME280;13153;52.316;21.166;2023-04-28T05:28:15;100931.31;;;23.70;25.71
34124;BME280;13153;52.316;21.166;2023-04-28T05:30:41;100932.72;;;24.34;25.00
34124;BME280;13153;52.316;21.166;2023-04-28T05:33:07;100925.75;;;25.05;23.72
34124;BME280;13153;52.316;21.166;2023-04-28T05:35:33;100933.09;;;25.69;22.92
34124;BME280;13153;52.316;21.166;2023-04-28T05:37:59;100931.19;;;26.36;22.54
34124;BME280;13153;52.316;21.166;2023-04-28T05:40:25;100927.50;;;27.24;21.54
34124;BME280;13153;52.316;21.166;2023-04-28T05:42:52;100928.00;;;27.35;20.70
34124;BME280;13153;52.316;21.166;2023-04-28T05:45:17;100924.25;;;27.67;20.47
34124;BME280;13153;52.316;21.166;2023-04-28T05:47:43;100926.34;;;28.07;19.62
34124;BME280;13153;52.316;21.166;2023-04-28T05:50:09;100936.38;;;28.30;19.67
34124;BME280;13153;52.316;21.166;2023-04-28T05:52:35;100936.28;;;28.55;19.08
34124;BME280;13153;52.316;21.166;2023-04-28T05:55:01;100944.16;;;28.61;19.33
34124;BME280;13153;52.316;21.166;2023-04-28T05:57:27;100939.97;;;28.76;18.42
34124;BME280;13153;52.316;21.166;2023-04-28T05:59:53;100946.75;;;28.87;18.90
34124;BME280;13153;52.316;21.166;2023-04-28T06:02:19;100947.75;;;29.07;18.92
34124;BME280;13153;52.316;21.166;2023-04-28T06:04:44;100945.59;;;29.37;19.40
34124;BME280;13153;52.316;21.166;2023-04-28T06:07:10;100945.31;;;29.85;18.24
34124;BME280;13153;52.316;21.166;2023-04-28T06:09:36;100941.19;;;29.76;17.59
34124;BME280;13153;52.316;21.166;2023-04-28T06:12:02;100947.81;;;30.30;17.61
34124;BME280;13153;52.316;21.166;2023-04-28T06:14:28;100948.06;;;30.63;17.50
34124;BME280;13153;52.316;21.166;2023-04-28T06:16:54;100944.81;;;30.55;17.36
34124;BME280;13153;52.316;21.166;2023-04-28T06:19:20;100944.72;;;30.38;17.77
34124;BME280;13153;52.316;21.166;2023-04-28T06:21:46;100951.22;;;30.73;17.26
34124;BME280;13153;52.316;21.166;2023-04-28T06:24:14;100951.44;;;30.68;16.55
34124;BME280;13153;52.316;21.166;2023-04-28T06:26:40;100955.81;;;31.27;16.60
34124;BME280;13153;52.316;21.166;2023-04-28T06:29:06;100949.41;;;31.28;16.39
34124;BME280;13153;52.316;21.166;2023-04-28T06:31:31;100955.34;;;30.81;16.35
34124;BME280;13153;52.316;21.166;2023-04-28T06:33:57;100953.06;;;30.72;16.38
34124;BME280;13153;52.316;21.166;2023-04-28T06:36:23;100952.84;;;30.77;16.00
34124;BME280;13153;52.316;21.166;2023-04-28T06:38:49;100952.00;;;30.58;16.28
34124;BME280;13153;52.316;21.166;2023-04-28T06:41:15;100960.63;;;30.84;16.34
34124;BME280;13153;52.316;21.166;2023-04-28T06:43:40;100959.22;;;30.95;16.58
34124;BME280;13153;52.316;21.166;2023-04-28T06:46:06;100959.66;;;31.04;16.29
34124;BME280;13153;52.316;21.166;2023-04-28T06:48:32;100967.19;;;31.18;16.66
34124;BME280;13153;52.316;21.166;2023-04-28T06:50:58;100960.50;;;32.29;15.90
34124;BME280;13153;52.316;21.166;2023-04-28T06:53:24;100957.06;;;31.91;15.43
34124;BME280;13153;52.316;21.166;2023-04-28T06:55:49;100960.56;;;31.58;15.74
34124;BME280;13153;52.316;21.166;2023-04-28T06:58:16;100960.97;;;31.50;15.21
34124;BME280;13153;52.316;21.166;2023-04-28T07:00:41;100960.81;;;31.53;15.55
34124;BME280;13153;52.316;21.166;2023-04-28T07:03:07;100949.06;;;31.88;15.31
34124;BME280;13153;52.316;21.166;2023-04-28T07:05:33;100955.53;;;31.85;15.06
34124;BME280;13153;52.316;21.166;2023-04-28T07:07:59;100962.97;;;31.64;15.14
34124;BME280;13153;52.316;21.166;2023-04-28T07:10:25;100954.06;;;31.43;15.24
34124;BME280;13153;52.316;21.166;2023-04-28T07:12:50;100963.00;;;31.28;15.74
34124;BME280;13153;52.316;21.166;2023-04-28T07:15:16;100956.63;;;31.29;16.12
34124;BME280;13153;52.316;21.166;2023-04-28T07:17:42;100952.25;;;31.61;15.89
34124;BME280;13153;52.316;21.166;2023-04-28T07:20:08;100946.22;;;31.73;15.83
34124;BME280;13153;52.316;21.166;2023-04-28T07:22:34;100947.13;;;32.24;15.78
34124;BME280;13153;52.316;21.166;2023-04-28T07:25:00;100948.47;;;32.81;16.24
34124;BME280;13153;52.316;21.166;2023-04-28T07:27:26;100943.66;;;32.54;15.21
34124;BME280;13153;52.316;21.166;2023-04-28T07:29:52;100947.03;;;32.08;15.27
34124;BME280;13153;52.316;21.166;2023-04-28T07:32:17;100945.22;;;31.21;15.13
34124;BME280;13153;52.316;21.166;2023-04-28T07:34:43;100935.06;;;30.12;15.81
34124;BME280;13153;52.316;21.166;2023-04-28T07:37:09;100930.56;;;29.08;16.39
34124;BME280;13153;52.316;21.166;2023-04-28T07:39:36;100929.22;;;28.51;17.65
34124;BME280;13153;52.316;21.166;2023-04-28T07:42:04;100925.28;;;27.63;18.84
34124;BME280;13153;52.316;21.166;2023-04-28T07:44:30;100928.44;;;27.49;19.08
34124;BME280;13153;52.316;21.166;2023-04-28T07:46:58;100917.31;;;27.06;18.94
34124;BME280;13153;52.316;21.166;2023-04-28T07:49:26;100915.13;;;26.31;19.58
34124;BME280;13153;52.316;21.166;2023-04-28T07:51:51;100915.66;;;26.13;18.91
34124;BME280;13153;52.316;21.166;2023-04-28T07:54:19;100912.00;;;25.49;18.90
34124;BME280;13153;52.316;21.166;2023-04-28T07:56:45;100906.31;;;24.90;18.28
34124;BME280;13153;52.316;21.166;2023-04-28T07:59:11;100906.72;;;24.75;19.03
34124;BME280;13153;52.316;21.166;2023-04-28T08:01:37;100907.78;;;24.26;19.95
34124;BME280;13153;52.316;21.166;2023-04-28T08:04:03;100904.00;;;23.44;20.96
34124;BME280;13153;52.316;21.166;2023-04-28T08:06:29;100915.81;;;22.82;22.24
34124;BME280;13153;52.316;21.166;2023-04-28T08:08:55;100911.25;;;22.22;22.74
34124;BME280;13153;52.316;21.166;2023-04-28T08:11:21;100905.56;;;21.73;23.21
34124;BME280;13153;52.316;21.166;2023-04-28T08:13:47;100910.53;;;21.21;23.73
34124;BME280;13153;52.316;21.166;2023-04-28T08:16:14;100911.81;;;20.72;23.45
34124;BME280;13153;52.316;21.166;2023-04-28T08:18:40;100911.09;;;20.44;23.94
34124;BME280;13153;52.316;21.166;2023-04-28T08:21:06;100907.56;;;20.30;24.23
34124;BME280;13153;52.316;21.166;2023-04-28T08:23:31;100900.53;;;20.17;24.41
34124;BME280;13153;52.316;21.166;2023-04-28T08:25:57;100896.09;;;20.07;24.33
34124;BME280;13153;52.316;21.166;2023-04-28T08:28:23;100901.22;;;20.54;23.97
34124;BME280;13153;52.316;21.166;2023-04-28T08:30:49;100904.69;;;20.73;22.93
34124;BME280;13153;52.316;21.166;2023-04-28T08:33:15;100895.88;;;20.57;22.38
34124;BME280;13153;52.316;21.166;2023-04-28T08:35:41;100896.88;;;20.30;23.07
34124;BME280;13153;52.316;21.166;2023-04-28T08:38:07;100904.13;;;20.04;22.90
34124;BME280;13153;52.316;21.166;2023-04-28T08:40:39;100900.66;;;19.74;23.50
34124;BME280;13153;52.316;21.166;2023-04-28T08:43:05;100898.94;;;19.49;23.68
34124;BME280;13153;52.316;21.166;2023-04-28T08:45:41;100893.59;;;19.57;24.40
34124;BME280;13153;52.316;21.166;2023-04-28T08:48:19;100891.69;;;20.00;24.36
34124;BME280;13153;52.316;21.166;2023-04-28T08:50:53;100882.56;;;20.43;22.90
34124;BME280;13153;52.316;21.166;2023-04-28T08:53:26;100877.06;;;20.71;23.31
34124;BME280;13153;52.316;21.166;2023-04-28T08:55:56;100875.06;;;20.94;22.26
34124;BME280;13153;52.316;21.166;2023-04-28T08:58:26;100876.66;;;21.18;21.36
34124;BME280;13153;52.316;21.166;2023-04-28T09:00:53;100881.00;;;21.36;21.73
34124;BME280;13153;52.316;21.166;2023-04-28T09:03:19;100880.16;;;21.28;21.25
34124;BME280;13153;52.316;21.166;2023-04-28T09:05:46;100875.91;;;20.99;21.18
34124;BME280;13153;52.316;21.166;2023-04-28T09:08:12;100874.38;;;20.69;21.58
34124;BME280;13153;52.316;21.166;2023-04-28T09:10:38;100866.53;;;20.45;22.72
34124;BME280;13153;52.316;21.166;2023-04-28T09:13:05;100868.44;;;20.20;22.67
34124;BME280;13153;52.316;21.166;2023-04-28T09:15:38;100866.78;;;19.90;22.85
34124;BME280;13153;52.316;21.166;2023-04-28T09:18:10;100867.72;;;19.74;22.86
34124;BME280;13153;52.316;21.166;2023-04-28T09:20:39;100868.69;;;19.62;22.51
34124;BME280;13153;52.316;21.166;2023-04-28T09:23:21;100871.34;;;19.59;22.52
34124;BME280;13153;52.316;21.166;2023-04-28T09:26:05;100860.56;;;19.90;22.36
34124;BME280;13153;52.316;21.166;2023-04-28T09:28:33;100855.97;;;20.19;22.46
34124;BME280;13153;52.316;21.166;2023-04-28T09:31:00;100855.13;;;20.13;21.08
34124;BME280;13153;52.316;21.166;2023-04-28T09:33:26;100856.97;;;19.97;21.66
34124;BME280;13153;52.316;21.166;2023-04-28T09:35:53;100851.63;;;19.94;22.54
34124;BME280;13153;52.316;21.166;2023-04-28T09:38:20;100856.03;;;20.08;22.32
34124;BME280;13153;52.316;21.166;2023-04-28T09:41:00;100848.72;;;20.33;22.44
34124;BME280;13153;52.316;21.166;2023-04-28T09:43:32;100851.38;;;20.47;21.44
34124;BME280;13153;52.316;21.166;2023-04-28T09:46:01;100843.25;;;20.59;21.83
34124;BME280;13153;52.316;21.166;2023-04-28T09:48:35;100845.94;;;20.61;20.77
34124;BME280;13153;52.316;21.166;2023-04-28T09:51:06;100838.19;;;20.14;20.20
34124;BME280;13153;52.316;21.166;2023-04-28T09:53:33;100831.16;;;19.93;21.11
34124;BME280;13153;52.316;21.166;2023-04-28T09:56:02;100836.59;;;19.71;21.34
34124;BME280;13153;52.316;21.166;2023-04-28T09:58:30;100830.44;;;19.59;21.44
34124;BME280;13153;52.316;21.166;2023-04-28T10:01:00;100828.66;;;19.59;22.75
34124;BME280;13153;52.316;21.166;2023-04-28T10:03:28;100829.53;;;19.58;22.37
34124;BME280;13153;52.316;21.166;2023-04-28T10:05:57;100825.09;;;19.57;22.23
34124;BME280;13153;52.316;21.166;2023-04-28T10:08:25;100823.31;;;19.61;23.06
34124;BME280;13153;52.316;21.166;2023-04-28T10:10:52;100817.97;;;19.59;23.07
34124;BME280;13153;52.316;21.166;2023-04-28T10:13:20;100810.78;;;19.70;24.31
34124;BME280;13153;52.316;21.166;2023-04-28T10:15:51;100812.50;;;19.82;23.64
34124;BME280;13153;52.316;21.166;2023-04-28T10:18:22;100802.66;;;19.98;23.81
34124;BME280;13153;52.316;21.166;2023-04-28T10:20:54;100806.94;;;20.23;24.16
34124;BME280;13153;52.316;21.166;2023-04-28T10:26:26;100797.94;;;20.36;22.30
34124;BME280;13153;52.316;21.166;2023-04-28T10:28:59;100799.63;;;20.53;23.43
34124;BME280;13153;52.316;21.166;2023-04-28T10:31:25;100801.25;;;20.75;23.37
34124;BME280;13153;52.316;21.166;2023-04-28T10:33:51;100796.78;;;20.75;21.70
34124;BME280;13153;52.316;21.166;2023-04-28T10:36:49;100795.00;;;20.76;22.92
34124;BME280;13153;52.316;21.166;2023-04-28T10:39:16;100790.59;;;20.69;22.32
34124;BME280;13153;52.316;21.166;2023-04-28T10:41:46;100789.78;;;20.61;22.23
34124;BME280;13153;52.316;21.166;2023-04-28T10:47:07;100785.59;;;20.19;22.77
34124;BME280;13153;52.316;21.166;2023-04-28T11:00:46;100763.56;;;19.78;22.09
34124;BME280;13153;52.316;21.166;2023-04-28T11:03:47;100766.19;;;19.88;23.46
34124;BME280;13153;52.316;21.166;2023-04-28T11:09:02;100764.47;;;19.73;22.13
34124;BME280;13153;52.316;21.166;2023-04-28T11:11:32;100761.81;;;19.70;22.67
34124;BME280;13153;52.316;21.166;2023-04-28T11:17:32;100754.63;;;19.84;24.68
34124;BME280;13153;52.316;21.166;2023-04-28T11:19:46;100751.94;;;19.90;22.68
34124;BME280;13153;52.316;21.166;2023-04-28T11:22:20;100753.81;;;19.73;22.67
34124;BME280;13153;52.316;21.166;2023-04-28T11:24:59;100754.78;;;19.61;22.81
34124;BME280;13153;52.316;21.166;2023-04-28T11:27:31;100760.06;;;19.64;23.87
34124;BME280;13153;52.316;21.166;2023-04-28T11:29:58;100753.03;;;19.54;22.86
34124;BME280;13153;52.316;21.166;2023-04-28T11:32:31;100748.56;;;19.45;22.99
34124;BME280;13153;52.316;21.166;2023-04-28T11:34:57;100744.13;;;19.44;24.30
34124;BME280;13153;52.316;21.166;2023-04-28T11:37:23;100737.91;;;19.39;22.91
34124;BME280;13153;52.316;21.166;2023-04-28T11:39:49;100744.13;;;19.43;24.32
34124;BME280;13153;52.316;21.166;2023-04-28T11:42:15;100741.47;;;19.44;24.35
34124;BME280;13153;52.316;21.166;2023-04-28T11:44:49;100738.78;;;19.54;24.99
34124;BME280;13153;52.316;21.166;2023-04-28T11:47:30;100738.78;;;19.44;23.75
34124;BME280;13153;52.316;21.166;2023-04-28T11:49:57;100729.03;;;19.36;23.84
34124;BME280;13153;52.316;21.166;2023-04-28T11:52:23;100735.25;;;19.36;23.96
34124;BME280;13153;52.316;21.166;2023-04-28T12:16:12;100718.53;;;18.83;25.14
34124;BME280;13153;52.316;21.166;2023-04-28T12:18:57;100716.75;;;18.91;25.29
34124;BME280;13153;52.316;21.166;2023-04-28T12:21:24;100714.06;;;18.95;26.25
34124;BME280;13153;52.316;21.166;2023-04-28T12:23:50;100716.72;;;18.98;25.09
34124;BME280;13153;52.316;21.166;2023-04-28T12:26:24;100709.63;;;19.00;24.86
34124;BME280;13153;52.316;21.166;2023-04-28T12:28:50;100712.28;;;18.97;24.76
34124;BME280;13153;52.316;21.166;2023-04-28T12:31:15;100700.75;;;18.80;23.69
34124;BME280;13153;52.316;21.166;2023-04-28T12:33:42;100702.56;;;18.69;23.16
34124;BME280;13153;52.316;21.166;2023-04-28T12:36:09;100702.56;;;18.63;24.50
34124;BME280;13153;52.316;21.166;2023-04-28T12:38:35;100683.91;;;18.32;23.82
34124;BME280;13153;52.316;21.166;2023-04-28T12:41:02;100689.25;;;18.47;23.89
34124;BME280;13153;52.316;21.166;2023-04-28T12:43:28;100688.34;;;18.61;23.63
34124;BME280;13153;52.316;21.166;2023-04-28T12:45:54;100691.88;;;18.76;23.82
34124;BME280;13153;52.316;21.166;2023-04-28T12:48:21;100682.06;;;18.92;24.57
34124;BME280;13153;52.316;21.166;2023-04-28T12:50:51;100677.59;;;19.02;23.78
34124;BME280;13153;52.316;21.166;2023-04-28T12:53:17;100675.75;;;19.11;24.26
34124;BME280;13153;52.316;21.166;2023-04-28T12:55:43;100673.03;;;19.24;25.62
34124;BME280;13153;52.316;21.166;2023-04-28T12:58:09;100670.31;;;19.39;25.67
34124;BME280;13153;52.316;21.166;2023-04-28T13:00:34;100669.41;;;19.46;25.71
34124;BME280;13153;52.316;21.166;2023-04-28T13:03:00;100671.19;;;19.52;25.41
34124;BME280;13153;52.316;21.166;2023-04-28T13:05:26;100672.94;;;19.53;24.75
34124;BME280;13153;52.316;21.166;2023-04-28T13:07:52;100669.41;;;19.46;23.77
34124;BME280;13153;52.316;21.166;2023-04-28T13:10:18;100670.38;;;19.27;22.73
34124;BME280;13153;52.316;21.166;2023-04-28T13:12:46;100670.41;;;19.21;24.05
34124;BME280;13153;52.316;21.166;2023-04-28T13:15:12;100665.06;;;19.22;24.40
34124;BME280;13153;52.316;21.166;2023-04-28T13:17:38;100659.69;;;19.28;24.85
34124;BME280;13153;52.316;21.166;2023-04-28T13:20:05;100661.47;;;19.28;24.00
34124;BME280;13153;52.316;21.166;2023-04-28T13:22:31;100657.94;;;19.21;24.31
34124;BME280;13153;52.316;21.166;2023-04-28T13:24:56;100655.31;;;19.10;23.42
34124;BME280;13153;52.316;21.166;2023-04-28T13:27:22;100662.50;;;18.93;22.83